sensor_id;sensor_type;location;lat;lon;timestamp;pressure;altitude;pressure_sealevel;temperature;humidity
62333;BME280;48624;49.812;8.562;2022-10-16T00:01:54;100304.00;;;15.87;100.00
62333;BME280;48624;49.812;8.562;2022-10-16T00:04:19;100302.34;;;15.66;100.00
62333;BME280;48624;49.812;8.562;2022-10-16T00:06:45;100303.63;;;15.81;100.00
62333;BME280;48624;49.812;8.562;2022-10-16T00:09:10;100301.81;;;15.92;100.00
62333;BME280;48624;49.812;8.562;2022-10-16T00:11:38;100301.06;;;15.80;100.00
62333;BME280;48624;49.812;8.562;2022-10-16T00:14:09;100310.34;;;16.05;100.00
62333;BME280;48624;49.812;8.562;2022-10-16T00:16:36;100312.50;;;15.92;100.00
62333;BME280;48624;49.812;8.562;2022-10-16T00:19:02;100329.09;;;15.95;100.00
62333;BME280;48624;49.812;8.562;2022-10-16T00:21:29;100323.56;;;15.97;100.00
62333;BME280;48624;49.812;8.562;2022-10-16T00:23:57;100299.00;;;15.93;100.00
62333;BME280;48624;49.812;8.562;2022-10-16T00:26:24;100290.09;;;15.83;100.00
62333;BME280;48624;49.812;8.562;2022-10-16T00:28:51;100306.72;;;15.77;100.00
62333;BME280;48624;49.812;8.562;2022-10-16T00:31:18;100307.16;;;15.52;100.00
62333;BME280;48624;49.812;8.562;2022-10-16T00:33:44;100317.69;;;15.64;100.00
62333;BME280;48624;49.812;8.562;2022-10-16T00:36:12;100328.06;;;15.87;100.00
62333;BME280;48624;49.812;8.562;2022-10-16T00:38:38;100315.97;;;15.73;100.00
62333;BME280;48624;49.812;8.562;2022-10-16T00:41:06;100306.97;;;15.74;100.00
62333;BME280;48624;49.812;8.562;2022-10-16T00:46:05;100309.94;;;15.51;100.00
62333;BME280;48624;49.812;8.562;2022-10-16T00:48:33;100314.88;;;15.65;100.00
62333;BME280;48624;49.812;8.562;2022-10-16T00:50:58;100312.34;;;15.44;100.00
62333;BME280;48624;49.812;8.562;2022-10-16T00:53:25;100322.03;;;15.65;100.00
62333;BME280;48624;49.812;8.562;2022-10-16T00:55:51;100326.94;;;15.50;100.00
62333;BME280;48624;49.812;8.562;2022-10-16T00:58:16;100331.03;;;15.44;100.00
62333;BME280;48624;49.812;8.562;2022-10-16T01:00:42;100327.25;;;15.47;100.00
62333;BME280;48624;49.812;8.562;2022-10-16T01:03:28;100329.06;;;15.46;100.00
62333;BME280;48624;49.812;8.562;2022-10-16T01:06:03;100331.84;;;15.35;100.00
62333;BME280;48624;49.812;8.562;2022-10-16T01:08:47;100326.09;;;15.39;100.00
62333;BME280;48624;49.812;8.562;2022-10-16T01:13:50;100325.94;;;15.41;100.00
62333;BME280;48624;49.812;8.562;2022-10-16T01:16:42;100334.41;;;15.56;100.00
62333;BME280;48624;49.812;8.562;2022-10-16T01:19:15;100344.66;;;15.51;100.00
62333;BME280;48624;49.812;8.562;2022-10-16T01:21:45;100335.38;;;15.65;100.00
62333;BME280;48624;49.812;8.562;2022-10-16T01:24:33;100344.94;;;15.58;100.00
62333;BME280;48624;49.812;8.562;2022-10-16T01:29:59;100334.66;;;15.53;100.00
62333;BME280;48624;49.812;8.562;2022-10-16T01:32:37;100332.03;;;15.63;100.00
62333;BME280;48624;49.812;8.562;2022-10-16T01:35:25;100323.31;;;15.61;100.00
62333;BME280;48624;49.812;8.562;2022-10-16T01:38:03;100325.69;;;15.64;100.00
62333;BME280;48624;49.812;8.562;2022-10-16T01:40:32;100334.25;;;15.77;100.00
62333;BME280;48624;49.812;8.562;2022-10-16T01:43:02;100330.34;;;15.62;100.00
62333;BME280;48624;49.812;8.562;2022-10-16T01:45:30;100345.91;;;15.76;100.00
62333;BME280;48624;49.812;8.562;2022-10-16T01:47:57;100349.28;;;15.78;100.00
62333;BME280;48624;49.812;8.562;2022-10-16T01:50:24;100359.72;;;15.81;100.00
62333;BME280;48624;49.812;8.562;2022-10-16T01:52:51;100358.84;;;15.81;100.00
62333;BME280;48624;49.812;8.562;2022-10-16T01:55:22;100361.66;;;15.60;100.00
62333;BME280;48624;49.812;8.562;2022-10-16T01:57:50;100361.53;;;15.61;100.00
62333;BME280;48624;49.812;8.562;2022-10-16T02:00:19;100365.75;;;15.64;100.00
62333;BME280;48624;49.812;8.562;2022-10-16T02:02:49;100362.94;;;15.85;100.00
62333;BME280;48624;49.812;8.562;2022-10-16T02:05:29;100362.81;;;15.77;100.00
62333;BME280;48624;49.812;8.562;2022-10-16T02:07:56;100358.88;;;15.71;100.00
62333;BME280;48624;49.812;8.562;2022-10-16T02:10:22;100352.97;;;15.87;100.00
62333;BME280;48624;49.812;8.562;2022-10-16T02:13:08;100351.72;;;15.91;100.00
62333;BME280;48624;49.812;8.562;2022-10-16T02:15:34;100350.47;;;15.95;100.00
62333;BME280;48624;49.812;8.562;2022-10-16T02:17:59;100343.56;;;15.93;100.00
62333;BME280;48624;49.812;8.562;2022-10-16T02:20:28;100335.94;;;16.08;100.00
62333;BME280;48624;49.812;8.562;2022-10-16T02:22:56;100345.53;;;15.91;100.00
62333;BME280;48624;49.812;8.562;2022-10-16T02:25:35;100340.59;;;15.96;100.00
62333;BME280;48624;49.812;8.562;2022-10-16T02:28:14;100338.91;;;16.05;100.00
62333;BME280;48624;49.812;8.562;2022-10-16T02:30:57;100347.78;;;15.95;100.00
62333;BME280;48624;49.812;8.562;2022-10-16T02:33:25;100351.56;;;16.13;100.00
62333;BME280;48624;49.812;8.562;2022-10-16T02:35:52;100352.09;;;16.16;100.00
62333;BME280;48624;49.812;8.562;2022-10-16T02:38:20;100345.78;;;16.07;100.00
62333;BME280;48624;49.812;8.562;2022-10-16T02:40:46;100354.78;;;16.06;100.00
62333;BME280;48624;49.812;8.562;2022-10-16T02:43:12;100353.78;;;16.17;100.00
62333;BME280;48624;49.812;8.562;2022-10-16T02:45:37;100353.66;;;16.09;100.00
62333;BME280;48624;49.812;8.562;2022-10-16T02:48:03;100362.53;;;16.09;100.00
62333;BME280;48624;49.812;8.562;2022-10-16T02:50:28;100359.56;;;16.13;100.00
62333;BME280;48624;49.812;8.562;2022-10-16T02:52:53;100362.94;;;16.15;100.00
62333;BME280;48624;49.812;8.562;2022-10-16T02:55:18;100356.63;;;16.06;100.00
62333;BME280;48624;49.812;8.562;2022-10-16T02:57:44;100362.25;;;15.93;100.00
62333;BME280;48624;49.812;8.562;2022-10-16T03:00:12;100363.38;;;16.10;100.00
62333;BME280;48624;49.812;8.562;2022-10-16T03:02:38;100367.59;;;16.13;100.00
62333;BME280;48624;49.812;8.562;2022-10-16T03:05:04;100371.66;;;15.87;100.00
62333;BME280;48624;49.812;8.562;2022-10-16T03:07:29;100370.53;;;16.00;100.00
62333;BME280;48624;49.812;8.562;2022-10-16T03:09:55;100378.13;;;16.14;100.00
62333;BME280;48624;49.812;8.562;2022-10-16T03:12:20;100376.03;;;16.18;100.00
62333;BME280;48624;49.812;8.562;2022-10-16T03:14:46;100378.84;;;16.16;100.00
62333;BME280;48624;49.812;8.562;2022-10-16T03:17:11;100391.47;;;16.24;100.00
62333;BME280;48624;49.812;8.562;2022-10-16T03:19:38;100391.47;;;16.34;100.00
62333;BME280;48624;49.812;8.562;2022-10-16T03:22:03;100378.94;;;16.34;100.00
62333;BME280;48624;49.812;8.562;2022-10-16T03:24:28;100379.09;;;16.33;100.00
62333;BME280;48624;49.812;8.562;2022-10-16T03:26:54;100378.94;;;16.34;100.00
62333;BME280;48624;49.812;8.562;2022-10-16T03:29:19;100383.84;;;16.39;100.00
62333;BME280;48624;49.812;8.562;2022-10-16T03:31:44;100375.41;;;16.44;100.00
62333;BME280;48624;49.812;8.562;2022-10-16T03:34:10;100377.81;;;16.47;100.00
62333;BME280;48624;49.812;8.562;2022-10-16T03:36:35;100382.44;;;16.45;100.00
62333;BME280;48624;49.812;8.562;2022-10-16T03:39:00;100372.72;;;16.44;100.00
62333;BME280;48624;49.812;8.562;2022-10-16T03:41:26;100375.94;;;16.47;100.00
62333;BME280;48624;49.812;8.562;2022-10-16T03:43:51;100379.47;;;16.48;100.00
62333;BME280;48624;49.812;8.562;2022-10-16T03:46:16;100388.63;;;16.45;100.00
62333;BME280;48624;49.812;8.562;2022-10-16T03:48:42;100398.19;;;16.48;100.00
62333;BME280;48624;49.812;8.562;2022-10-16T03:51:07;100395.09;;;16.43;100.00
62333;BME280;48624;49.812;8.562;2022-10-16T03:53:32;100399.19;;;16.47;100.00
62333;BME280;48624;49.812;8.562;2022-10-16T03:55:58;100399.88;;;16.49;100.00
62333;BME280;48624;49.812;8.562;2022-10-16T03:58:23;100402.44;;;16.50;100.00
62333;BME280;48624;49.812;8.562;2022-10-16T04:00:49;100402.25;;;16.52;100.00
62333;BME280;48624;49.812;8.562;2022-10-16T04:03:15;100418.16;;;16.54;100.00
62333;BME280;48624;49.812;8.562;2022-10-16T04:05:40;100399.91;;;16.39;100.00
62333;BME280;48624;49.812;8.562;2022-10-16T04:08:06;100374.88;;;16.30;100.00
62333;BME280;48624;49.812;8.562;2022-10-16T04:10:31;100387.94;;;16.33;100.00
62333;BME280;48624;49.812;8.562;2022-10-16T04:12:57;100380.22;;;16.30;100.00
62333;BME280;48624;49.812;8.562;2022-10-16T04:15:23;100389.66;;;16.25;100.00
62333;BME280;48624;49.812;8.562;2022-10-16T04:17:48;100385.88;;;16.27;100.00
62333;BME280;48624;49.812;8.562;2022-10-16T04:20:14;100393.31;;;16.23;100.00
62333;BME280;48624;49.812;8.562;2022-10-16T04:22:39;100400.06;;;16.28;100.00
62333;BME280;48624;49.812;8.562;2022-10-16T04:25:05;100409.06;;;16.27;100.00
62333;BME280;48624;49.812;8.562;2022-10-16T04:27:30;100409.78;;;16.19;100.00
62333;BME280;48624;49.812;8.562;2022-10-16T04:29:57;100396.25;;;16.20;100.00
62333;BME280;48624;49.812;8.562;2022-10-16T04:32:22;100396.44;;;16.19;100.00
62333;BME280;48624;49.812;8.562;2022-10-16T04:34:47;100392.47;;;16.23;100.00
62333;BME280;48624;49.812;8.562;2022-10-16T04:37:13;100390.50;;;16.15;100.00
62333;BME280;48624;49.812;8.562;2022-10-16T04:39:38;100399.09;;;16.19;100.00
62333;BME280;48624;49.812;8.562;2022-10-16T04:42:03;100400.91;;;15.89;100.00
62333;BME280;48624;49.812;8.562;2022-10-16T04:44:29;100401.91;;;15.98;100.00
62333;BME280;48624;49.812;8.562;2022-10-16T04:46:54;100393.03;;;15.87;100.00
62333;BME280;48624;49.812;8.562;2022-10-16T04:49:19;100402.28;;;15.83;100.00
62333;BME280;48624;49.812;8.562;2022-10-16T04:51:45;100396.53;;;15.88;100.00
62333;BME280;48624;49.812;8.562;2022-10-16T04:54:10;100390.66;;;15.84;100.00
62333;BME280;48624;49.812;8.562;2022-10-16T04:56:36;100402.84;;;15.87;100.00
62333;BME280;48624;49.812;8.562;2022-10-16T04:59:08;100407.38;;;15.96;100.00
62333;BME280;48624;49.812;8.562;2022-10-16T05:01:34;100401.31;;;15.74;100.00
62333;BME280;48624;49.812;8.562;2022-10-16T05:03:59;100396.69;;;15.86;100.00
62333;BME280;48624;49.812;8.562;2022-10-16T05:06:25;100395.69;;;15.77;100.00
62333;BME280;48624;49.812;8.562;2022-10-16T05:08:50;100394.44;;;15.81;100.00
62333;BME280;48624;49.812;8.562;2022-10-16T05:11:15;100387.84;;;15.76;100.00
62333;BME280;48624;49.812;8.562;2022-10-16T05:13:41;100382.63;;;15.74;100.00
62333;BME280;48624;49.812;8.562;2022-10-16T05:16:06;100406.69;;;15.84;100.00
62333;BME280;48624;49.812;8.562;2022-10-16T05:18:32;100395.44;;;15.90;100.00
62333;BME280;48624;49.812;8.562;2022-10-16T05:20:57;100400.78;;;15.90;100.00
62333;BME280;48624;49.812;8.562;2022-10-16T05:23:22;100408.94;;;15.99;100.00
62333;BME280;48624;49.812;8.562;2022-10-16T05:25:56;100413.44;;;15.98;100.00
62333;BME280;48624;49.812;8.562;2022-10-16T05:28:26;100409.22;;;16.05;100.00
62333;BME280;48624;49.812;8.562;2022-10-16T05:30:52;100413.88;;;16.03;100.00
62333;BME280;48624;49.812;8.562;2022-10-16T05:33:22;100407.13;;;15.99;100.00
62333;BME280;48624;49.812;8.562;2022-10-16T05:35:48;100414.28;;;15.89;100.00
62333;BME280;48624;49.812;8.562;2022-10-16T05:38:15;100413.03;;;16.13;100.00
62333;BME280;48624;49.812;8.562;2022-10-16T05:40:40;100417.38;;;16.14;100.00
62333;BME280;48624;49.812;8.562;2022-10-16T05:43:06;100415.97;;;16.00;100.00
62333;BME280;48624;49.812;8.562;2022-10-16T05:45:31;100422.03;;;15.92;100.00
62333;BME280;48624;49.812;8.562;2022-10-16T05:47:56;100418.50;;;15.91;100.00
62333;BME280;48624;49.812;8.562;2022-10-16T05:50:21;100414.69;;;15.84;100.00
62333;BME280;48624;49.812;8.562;2022-10-16T05:52:48;100418.75;;;15.88;100.00
62333;BME280;48624;49.812;8.562;2022-10-16T05:55:14;100429.31;;;15.90;100.00
62333;BME280;48624;49.812;8.562;2022-10-16T05:57:39;100438.72;;;15.84;100.00
62333;BME280;48624;49.812;8.562;2022-10-16T06:00:05;100446.91;;;15.92;100.00
62333;BME280;48624;49.812;8.562;2022-10-16T06:02:30;100450.56;;;15.91;100.00
62333;BME280;48624;49.812;8.562;2022-10-16T06:04:56;100447.69;;;15.83;100.00
62333;BME280;48624;49.812;8.562;2022-10-16T06:07:22;100449.25;;;15.86;100.00
62333;BME280;48624;49.812;8.562;2022-10-16T06:09:48;100456.03;;;15.90;100.00
62333;BME280;48624;49.812;8.562;2022-10-16T06:12:15;100458.03;;;15.98;100.00
62333;BME280;48624;49.812;8.562;2022-10-16T06:14:40;100455.75;;;16.03;100.00
62333;BME280;48624;49.812;8.562;2022-10-16T06:17:08;100461.25;;;16.11;100.00
62333;BME280;48624;49.812;8.562;2022-10-16T06:19:33;100464.22;;;16.08;100.00
62333;BME280;48624;49.812;8.562;2022-10-16T06:21:58;100456.19;;;16.08;100.00
62333;BME280;48624;49.812;8.562;2022-10-16T06:24:27;100461.00;;;16.14;100.00
62333;BME280;48624;49.812;8.562;2022-10-16T06:26:53;100461.00;;;16.14;100.00
62333;BME280;48624;49.812;8.562;2022-10-16T06:29:18;100467.59;;;16.10;100.00
62333;BME280;48624;49.812;8.562;2022-10-16T06:31:43;100459.41;;;16.02;100.00
62333;BME280;48624;49.812;8.562;2022-10-16T06:34:09;100461.97;;;16.13;100.00
62333;BME280;48624;49.812;8.562;2022-10-16T06:36:37;100469.72;;;16.16;100.00
62333;BME280;48624;49.812;8.562;2022-10-16T06:39:03;100460.56;;;16.09;100.00
62333;BME280;48624;49.812;8.562;2022-10-16T06:41:29;100460.97;;;16.24;100.00
62333;BME280;48624;49.812;8.562;2022-10-16T06:43:54;100455.91;;;16.01;100.00
62333;BME280;48624;49.812;8.562;2022-10-16T06:46:21;100469.25;;;15.91;100.00
62333;BME280;48624;49.812;8.562;2022-10-16T06:48:47;100477.72;;;16.16;100.00
62333;BME280;48624;49.812;8.562;2022-10-16T06:51:20;100483.78;;;16.18;100.00
62333;BME280;48624;49.812;8.562;2022-10-16T06:53:48;100493.19;;;16.32;100.00
62333;BME280;48624;49.812;8.562;2022-10-16T06:56:25;100484.31;;;16.12;100.00
62333;BME280;48624;49.812;8.562;2022-10-16T06:58:52;100498.66;;;16.31;100.00
62333;BME280;48624;49.812;8.562;2022-10-16T07:01:20;100491.38;;;16.13;100.00
62333;BME280;48624;49.812;8.562;2022-10-16T07:03:46;100489.25;;;16.27;100.00
62333;BME280;48624;49.812;8.562;2022-10-16T07:06:14;100496.44;;;16.36;100.00
62333;BME280;48624;49.812;8.562;2022-10-16T07:08:42;100499.66;;;16.49;100.00
62333;BME280;48624;49.812;8.562;2022-10-16T07:11:10;100507.41;;;16.43;100.00
62333;BME280;48624;49.812;8.562;2022-10-16T07:13:37;100507.00;;;16.57;100.00
62333;BME280;48624;49.812;8.562;2022-10-16T07:16:12;100511.34;;;16.58;100.00
62333;BME280;48624;49.812;8.562;2022-10-16T07:18:38;100516.66;;;16.68;100.00
62333;BME280;48624;49.812;8.562;2022-10-16T07:21:09;100518.34;;;16.69;100.00
62333;BME280;48624;49.812;8.562;2022-10-16T07:23:35;100528.34;;;16.67;100.00
62333;BME280;48624;49.812;8.562;2022-10-16T07:26:01;100526.13;;;16.72;100.00
62333;BME280;48624;49.812;8.562;2022-10-16T07:28:27;100534.13;;;16.62;100.00
62333;BME280;48624;49.812;8.562;2022-10-16T07:30:52;100533.84;;;16.75;100.00
62333;BME280;48624;49.812;8.562;2022-10-16T07:33:18;100541.31;;;16.72;100.00
62333;BME280;48624;49.812;8.562;2022-10-16T07:35:48;100548.34;;;16.83;100.00
62333;BME280;48624;49.812;8.562;2022-10-16T07:38:14;100551.84;;;16.93;100.00
62333;BME280;48624;49.812;8.562;2022-10-16T07:40:39;100543.84;;;16.73;100.00
62333;BME280;48624;49.812;8.562;2022-10-16T07:43:04;100550.03;;;16.84;100.00
62333;BME280;48624;49.812;8.562;2022-10-16T07:45:30;100552.69;;;16.84;100.00
62333;BME280;48624;49.812;8.562;2022-10-16T07:47:55;100551.41;;;16.88;100.00
62333;BME280;48624;49.812;8.562;2022-10-16T07:50:21;100558.19;;;16.92;100.00
62333;BME280;48624;49.812;8.562;2022-10-16T07:52:46;100557.19;;;16.83;100.00
62333;BME280;48624;49.812;8.562;2022-10-16T07:55:11;100557.50;;;16.80;100.00
62333;BME280;48624;49.812;8.562;2022-10-16T07:57:36;100555.50;;;16.92;100.00
62333;BME280;48624;49.812;8.562;2022-10-16T08:00:02;100557.91;;;16.85;100.00
62333;BME280;48624;49.812;8.562;2022-10-16T08:02:29;100564.66;;;16.89;100.00
62333;BME280;48624;49.812;8.562;2022-10-16T08:04:55;100568.88;;;16.82;100.00
62333;BME280;48624;49.812;8.562;2022-10-16T08:07:20;100565.38;;;16.82;100.00
62333;BME280;48624;49.812;8.562;2022-10-16T08:09:49;100564.25;;;16.74;100.00
62333;BME280;48624;49.812;8.562;2022-10-16T08:12:14;100565.78;;;16.97;100.00
62333;BME280;48624;49.812;8.562;2022-10-16T08:14:40;100568.63;;;16.85;100.00
62333;BME280;48624;49.812;8.562;2022-10-16T08:17:05;100582.25;;;16.82;100.00
62333;BME280;48624;49.812;8.562;2022-10-16T08:19:30;100583.41;;;16.70;100.00
62333;BME280;48624;49.812;8.562;2022-10-16T08:21:59;100590.16;;;16.74;100.00
62333;BME280;48624;49.812;8.562;2022-10-16T08:24:24;100599.03;;;16.94;100.00
62333;BME280;48624;49.812;8.562;2022-10-16T08:26:49;100601.00;;;16.72;100.00
62333;BME280;48624;49.812;8.562;2022-10-16T08:29:15;100636.34;;;16.66;100.00
62333;BME280;48624;49.812;8.562;2022-10-16T08:31:40;100652.56;;;17.14;100.00
62333;BME280;48624;49.812;8.562;2022-10-16T08:34:06;100651.69;;;16.74;100.00
62333;BME280;48624;49.812;8.562;2022-10-16T08:36:32;100643.59;;;16.34;100.00
62333;BME280;48624;49.812;8.562;2022-10-16T08:38:57;100643.47;;;16.36;100.00
62333;BME280;48624;49.812;8.562;2022-10-16T08:42:00;100643.44;;;16.16;100.00
62333;BME280;48624;49.812;8.562;2022-10-16T08:44:58;100638.09;;;16.16;100.00
62333;BME280;48624;49.812;8.562;2022-10-16T08:47:58;100650.75;;;16.14;100.00
62333;BME280;48624;49.812;8.562;2022-10-16T08:50:27;100662.38;;;16.03;100.00
62333;BME280;48624;49.812;8.562;2022-10-16T08:52:54;100666.84;;;16.03;100.00
62333;BME280;48624;49.812;8.562;2022-10-16T08:55:41;100649.59;;;16.07;100.00
62333;BME280;48624;49.812;8.562;2022-10-16T08:58:13;100645.59;;;15.91;100.00
62333;BME280;48624;49.812;8.562;2022-10-16T09:00:39;100642.16;;;16.11;100.00
62333;BME280;48624;49.812;8.562;2022-10-16T09:08:48;100663.59;;;16.30;100.00
62333;BME280;48624;49.812;8.562;2022-10-16T09:11:30;100671.47;;;16.32;100.00
62333;BME280;48624;49.812;8.562;2022-10-16T09:16:46;100685.09;;;16.29;100.00
62333;BME280;48624;49.812;8.562;2022-10-16T09:21:45;100678.25;;;16.36;100.00
62333;BME280;48624;49.812;8.562;2022-10-16T09:24:17;100677.28;;;16.57;100.00
62333;BME280;48624;49.812;8.562;2022-10-16T09:26:44;100683.75;;;16.54;100.00
62333;BME280;48624;49.812;8.562;2022-10-16T09:29:14;100683.09;;;16.72;100.00
62333;BME280;48624;49.812;8.562;2022-10-16T09:31:41;100688.59;;;16.70;100.00
62333;BME280;48624;49.812;8.562;2022-10-16T09:34:17;100688.84;;;16.57;100.00
62333;BME280;48624;49.812;8.562;2022-10-16T09:36:46;100681.84;;;16.96;100.00
62333;BME280;48624;49.812;8.562;2022-10-16T09:39:12;100692.56;;;17.05;100.00
62333;BME280;48624;49.812;8.562;2022-10-16T09:41:40;100690.63;;;17.08;100.00
62333;BME280;48624;49.812;8.562;2022-10-16T09:46:43;100708.91;;;17.52;100.00
62333;BME280;48624;49.812;8.562;2022-10-16T09:49:22;100712.22;;;17.64;100.00
62333;BME280;48624;49.812;8.562;2022-10-16T09:51:49;100703.56;;;17.89;100.00
62333;BME280;48624;49.812;8.562;2022-10-16T09:54:18;100701.72;;;18.10;100.00
62333;BME280;48624;49.812;8.562;2022-10-16T09:56:43;100704.88;;;18.23;100.00
62333;BME280;48624;49.812;8.562;2022-10-16T09:59:16;100697.88;;;18.02;100.00
62333;BME280;48624;49.812;8.562;2022-10-16T10:01:47;100704.19;;;18.21;100.00
62333;BME280;48624;49.812;8.562;2022-10-16T10:04:13;100704.84;;;18.33;100.00
62333;BME280;48624;49.812;8.562;2022-10-16T10:06:48;100713.91;;;18.50;100.00
62333;BME280;48624;49.812;8.562;2022-10-16T10:09:19;100713.00;;;18.41;100.00
62333;BME280;48624;49.812;8.562;2022-10-16T10:11:49;100710.03;;;18.63;100.00
62333;BME280;48624;49.812;8.562;2022-10-16T10:14:35;100713.47;;;18.73;100.00
62333;BME280;48624;49.812;8.562;2022-10-16T10:17:07;100717.25;;;18.80;100.00
62333;BME280;48624;49.812;8.562;2022-10-16T10:22:21;100715.19;;;18.92;100.00
62333;BME280;48624;49.812;8.562;2022-10-16T10:25:16;100711.91;;;18.98;100.00
62333;BME280;48624;49.812;8.562;2022-10-16T10:30:56;100722.06;;;19.23;100.00
62333;BME280;48624;49.812;8.562;2022-10-16T10:36:15;100719.41;;;19.49;96.15
62333;BME280;48624;49.812;8.562;2022-10-16T10:39:16;100728.69;;;19.81;99.41
62333;BME280;48624;49.812;8.562;2022-10-16T10:47:35;100719.28;;;21.23;92.73
62333;BME280;48624;49.812;8.562;2022-10-16T10:50:25;100714.16;;;20.27;94.19
62333;BME280;48624;49.812;8.562;2022-10-16T10:59:05;100707.66;;;21.14;93.38
62333;BME280;48624;49.812;8.562;2022-10-16T11:01:54;100698.25;;;21.18;89.88
62333;BME280;48624;49.812;8.562;2022-10-16T11:06:55;100699.25;;;21.09;93.44
62333;BME280;48624;49.812;8.562;2022-10-16T11:09:25;100701.44;;;21.22;94.82
62333;BME280;48624;49.812;8.562;2022-10-16T11:12:02;100686.78;;;21.41;94.19
62333;BME280;48624;49.812;8.562;2022-10-16T11:14:50;100698.41;;;21.58;90.30
62333;BME280;48624;49.812;8.562;2022-10-16T11:17:23;100689.41;;;21.91;92.04
62333;BME280;48624;49.812;8.562;2022-10-16T11:25:22;100706.06;;;21.95;86.42
62333;BME280;48624;49.812;8.562;2022-10-16T11:27:53;100705.28;;;22.34;88.23
62333;BME280;48624;49.812;8.562;2022-10-16T11:30:26;100706.91;;;22.75;81.95
62333;BME280;48624;49.812;8.562;2022-10-16T11:35:41;100711.22;;;22.61;80.68
62333;BME280;48624;49.812;8.562;2022-10-16T11:40:48;100704.94;;;21.81;83.28
62333;BME280;48624;49.812;8.562;2022-10-16T11:43:22;100704.78;;;21.74;83.34
62333;BME280;48624;49.812;8.562;2022-10-16T11:45:53;100705.78;;;21.56;84.45
62333;BME280;48624;49.812;8.562;2022-10-16T11:48:26;100709.50;;;21.80;82.18
62333;BME280;48624;49.812;8.562;2022-10-16T11:50:56;100699.94;;;21.36;84.50
62333;BME280;48624;49.812;8.562;2022-10-16T11:54:02;100694.53;;;21.36;82.19
62333;BME280;48624;49.812;8.562;2022-10-16T11:56:31;100702.28;;;21.14;85.02
62333;BME280;48624;49.812;8.562;2022-10-16T11:59:05;100691.34;;;21.32;85.45
62333;BME280;48624;49.812;8.562;2022-10-16T12:04:22;100683.53;;;21.62;85.58
62333;BME280;48624;49.812;8.562;2022-10-16T12:07:23;100682.03;;;21.68;82.40
62333;BME280;48624;49.812;8.562;2022-10-16T12:09:51;100684.34;;;22.36;78.98
62333;BME280;48624;49.812;8.562;2022-10-16T12:12:28;100684.50;;;22.35;78.81
62333;BME280;48624;49.812;8.562;2022-10-16T12:15:19;100691.09;;;22.32;77.51
62333;BME280;48624;49.812;8.562;2022-10-16T12:17:45;100687.09;;;22.20;79.43
62333;BME280;48624;49.812;8.562;2022-10-16T12:22:37;100684.47;;;22.03;78.97
62333;BME280;48624;49.812;8.562;2022-10-16T12:25:22;100682.22;;;22.15;81.45
62333;BME280;48624;49.812;8.562;2022-10-16T12:28:04;100687.66;;;22.07;80.41
62333;BME280;48624;49.812;8.562;2022-10-16T12:30:35;100689.44;;;22.23;78.93
62333;BME280;48624;49.812;8.562;2022-10-16T12:33:16;100696.88;;;22.21;78.53
62333;BME280;48624;49.812;8.562;2022-10-16T12:35:45;100701.13;;;22.15;80.29
62333;BME280;48624;49.812;8.562;2022-10-16T12:38:28;100704.41;;;22.34;78.56
62333;BME280;48624;49.812;8.562;2022-10-16T12:46:05;100691.94;;;22.96;77.55
62333;BME280;48624;49.812;8.562;2022-10-16T12:48:30;100689.41;;;22.94;76.51
62333;BME280;48624;49.812;8.562;2022-10-16T12:50:56;100689.81;;;23.06;76.49
62333;BME280;48624;49.812;8.562;2022-10-16T12:53:26;100696.91;;;22.84;76.76
62333;BME280;48624;49.812;8.562;2022-10-16T12:58:51;100686.88;;;22.69;77.56
62333;BME280;48624;49.812;8.562;2022-10-16T13:06:57;100685.38;;;22.90;76.57
62333;BME280;48624;49.812;8.562;2022-10-16T13:15:07;100701.38;;;22.68;78.55
62333;BME280;48624;49.812;8.562;2022-10-16T13:17:55;100697.59;;;22.54;78.92
62333;BME280;48624;49.812;8.562;2022-10-16T13:20:33;100702.97;;;22.54;77.98
62333;BME280;48624;49.812;8.562;2022-10-16T13:23:17;100693.41;;;22.43;79.47
62333;BME280;48624;49.812;8.562;2022-10-16T13:28:30;100691.00;;;22.09;80.91
62333;BME280;48624;49.812;8.562;2022-10-16T13:30:58;100697.28;;;22.01;81.32
62333;BME280;48624;49.812;8.562;2022-10-16T13:33:39;100694.13;;;21.81;82.17
62333;BME280;48624;49.812;8.562;2022-10-16T13:36:05;100705.13;;;21.71;83.15
62333;BME280;48624;49.812;8.562;2022-10-16T13:38:35;100707.47;;;21.57;83.45
62333;BME280;48624;49.812;8.562;2022-10-16T13:41:06;100709.69;;;21.45;83.86
62333;BME280;48624;49.812;8.562;2022-10-16T13:43:45;100711.38;;;21.30;84.67
62333;BME280;48624;49.812;8.562;2022-10-16T13:46:13;100711.19;;;20.98;87.41
62333;BME280;48624;49.812;8.562;2022-10-16T13:48:39;100713.22;;;21.13;86.39
62333;BME280;48624;49.812;8.562;2022-10-16T13:51:16;100706.41;;;20.75;88.15
62333;BME280;48624;49.812;8.562;2022-10-16T13:53:43;100711.03;;;20.91;87.71
62333;BME280;48624;49.812;8.562;2022-10-16T13:56:17;100710.50;;;20.88;87.90
62333;BME280;48624;49.812;8.562;2022-10-16T13:58:44;100703.59;;;20.85;88.75
62333;BME280;48624;49.812;8.562;2022-10-16T14:01:19;100707.75;;;20.79;88.26
62333;BME280;48624;49.812;8.562;2022-10-16T14:03:46;100713.03;;;20.89;89.42
62333;BME280;48624;49.812;8.562;2022-10-16T14:06:15;100715.91;;;20.96;88.92
62333;BME280;48624;49.812;8.562;2022-10-16T14:08:44;100716.44;;;21.08;87.81
62333;BME280;48624;49.812;8.562;2022-10-16T14:11:11;100709.38;;;21.07;88.64
62333;BME280;48624;49.812;8.562;2022-10-16T14:13:39;100711.19;;;20.98;87.75
62333;BME280;48624;49.812;8.562;2022-10-16T14:16:10;100706.16;;;21.12;87.29
62333;BME280;48624;49.812;8.562;2022-10-16T14:18:37;100701.94;;;21.09;87.32